Time;durP1;ratioP1;P1;durP2;ratioP2;P2;SDS_P1;SDS_P2;PMS_P1;PMS_P2;Temp;Humidity;BMP_temperature;BMP_pressure;BME280_temperature;BME280_humidity;BME280_pressure;Samples;Min_cycle;Max_cycle;Signal;HPM_P1;HPM_P2
2022/06/08 00:00:20;;;;;;;12.50;6.47;;;17.00;99.90;;;;;;4973205;28;20408;-80
2022/06/08 00:03:13;;;;;;;15.05;6.80;;;17.00;99.90;;;;;;4976549;28;20792;-83
2022/06/08 00:05:42;;;;;;;12.25;6.35;;;16.90;99.90;;;;;;4980667;28;20442;-79
2022/06/08 00:08:10;;;;;;;8.03;6.53;;;16.90;99.90;;;;;;4979562;28;20395;-79
2022/06/08 00:10:37;;;;;;;13.15;7.05;;;16.90;99.90;;;;;;4980860;28;20404;-81
2022/06/08 00:13:05;;;;;;;12.52;6.45;;;16.80;99.90;;;;;;4996130;28;20419;-80
2022/06/08 00:15:33;;;;;;;9.00;6.40;;;16.80;99.90;;;;;;4993772;28;20590;-83
2022/06/08 00:18:01;;;;;;;12.10;6.65;;;16.80;99.90;;;;;;4982007;28;20383;-79
2022/06/08 00:20:29;;;;;;;11.35;6.38;;;16.80;99.90;;;;;;4981800;28;20410;-82
2022/06/08 00:22:56;;;;;;;10.13;6.22;;;16.80;99.90;;;;;;4994940;28;20808;-79
2022/06/08 00:25:25;;;;;;;11.60;6.45;;;16.70;99.90;;;;;;4947843;28;20416;-79
2022/06/08 00:27:52;;;;;;;10.10;6.70;;;16.70;99.90;;;;;;4994915;28;20386;-83
2022/06/08 00:30:20;;;;;;;13.55;6.43;;;16.60;99.90;;;;;;4977984;28;20419;-84
2022/06/08 00:32:47;;;;;;;11.18;6.50;;;16.60;99.90;;;;;;4954354;28;20435;-80
2022/06/08 00:35:15;;;;;;;9.40;5.95;;;16.60;99.90;;;;;;4995555;28;20921;-82
2022/06/08 00:37:43;;;;;;;13.35;6.32;;;16.60;99.90;;;;;;4966362;28;20437;-79
2022/06/08 00:40:12;;;;;;;12.95;6.57;;;16.50;99.90;;;;;;4981825;28;20504;-80
2022/06/08 00:42:41;;;;;;;10.40;6.17;;;16.50;99.90;;;;;;4953923;28;20919;-79
2022/06/08 00:45:14;;;;;;;11.40;6.78;;;16.50;99.90;;;;;;4980906;28;20419;-81
2022/06/08 00:48:05;;;;;;;7.95;6.40;;;16.50;99.90;;;;;;4973449;28;20425;-80
2022/06/08 00:50:46;;;;;;;12.25;6.78;;;16.50;99.90;;;;;;4965043;28;20758;-79
2022/06/08 00:53:17;;;;;;;9.05;6.20;;;16.50;99.90;;;;;;4978809;28;20455;-80
2022/06/08 00:55:46;;;;;;;13.40;6.45;;;16.50;99.90;;;;;;4978420;28;20399;-85
2022/06/08 00:58:23;;;;;;;10.13;6.15;;;16.50;99.90;;;;;;4976489;28;20414;-83
2022/06/08 01:00:52;;;;;;;9.70;6.20;;;16.40;99.90;;;;;;4975990;28;20421;-84
2022/06/08 01:03:21;;;;;;;9.70;6.30;;;16.40;99.90;;;;;;4977682;28;20440;-78
2022/06/08 01:06:13;;;;;;;13.45;7.22;;;16.50;99.90;;;;;;4976470;28;20420;-79
2022/06/08 01:08:47;;;;;;;9.10;6.57;;;16.50;99.90;;;;;;4977048;28;20417;-86
2022/06/08 01:11:27;;;;;;;10.20;6.40;;;16.40;99.90;;;;;;4993886;28;20421;-86
2022/06/08 01:14:01;;;;;;;11.93;6.43;;;16.40;99.90;;;;;;4977705;28;20419;-81
2022/06/08 01:16:31;;;;;;;11.35;6.57;;;16.50;99.90;;;;;;4992695;28;20416;-86
2022/06/08 01:19:02;;;;;;;11.43;6.60;;;16.50;99.90;;;;;;4975915;28;20444;-81
2022/06/08 01:21:31;;;;;;;11.18;7.00;;;16.40;99.90;;;;;;4993600;28;20436;-83
2022/06/08 01:24:10;;;;;;;11.55;7.10;;;16.40;99.90;;;;;;4993518;28;20395;-79
2022/06/08 01:26:45;;;;;;;10.77;6.72;;;16.40;99.90;;;;;;4976788;28;20418;-83
2022/06/08 01:29:37;;;;;;;9.18;6.53;;;16.40;99.90;;;;;;4975025;28;20485;-78
2022/06/08 01:32:28;;;;;;;12.32;6.50;;;16.40;99.90;;;;;;4990128;28;20409;-84
2022/06/08 01:35:20;;;;;;;9.18;6.88;;;16.40;99.90;;;;;;4971153;28;20444;-80
2022/06/08 01:38:12;;;;;;;9.03;6.23;;;16.30;99.90;;;;;;4968618;28;20810;-86
2022/06/08 01:41:05;;;;;;;10.95;6.57;;;16.30;99.90;;;;;;4990344;28;20716;-86
2022/06/08 01:43:46;;;;;;;9.32;6.43;;;16.40;99.90;;;;;;4992611;28;20385;-83
2022/06/08 01:46:24;;;;;;;8.60;6.18;;;16.30;99.90;;;;;;4990304;28;20473;-79
2022/06/08 01:49:27;;;;;;;11.70;6.50;;;16.30;99.90;;;;;;4972364;28;20835;-80
2022/06/08 01:52:11;;;;;;;10.43;6.97;;;16.30;99.90;;;;;;4968824;28;20414;-84
2022/06/08 01:55:00;;;;;;;8.10;6.50;;;16.20;99.90;;;;;;4968614;28;20403;-81
2022/06/08 01:57:37;;;;;;;8.40;6.70;;;16.20;99.90;;;;;;4991463;28;20411;-85
2022/06/08 02:00:10;;;;;;;11.57;7.20;;;16.20;99.90;;;;;;4974013;28;20416;-85
2022/06/08 02:02:54;;;;;;;11.48;7.47;;;16.20;99.90;;;;;;4970116;28;20433;-79
2022/06/08 02:05:42;;;;;;;10.98;6.65;;;16.20;99.90;;;;;;4982706;28;20578;-82
2022/06/08 02:08:23;;;;;;;10.32;6.97;;;16.20;99.90;;;;;;4971654;28;20412;-80
2022/06/08 02:10:50;;;;;;;14.32;6.85;;;16.20;99.90;;;;;;4969862;28;20958;-87
2022/06/08 02:13:31;;;;;;;8.98;6.50;;;16.10;99.90;;;;;;4975701;28;20958;-84
2022/06/08 02:16:18;;;;;;;14.80;7.00;;;16.10;99.90;;;;;;4969542;28;20410;-87
2022/06/08 02:19:01;;;;;;;9.55;6.88;;;16.10;99.90;;;;;;4969806;28;20412;-87
2022/06/08 02:21:56;;;;;;;13.30;7.03;;;16.10;99.90;;;;;;4968414;28;20418;-83
2022/06/08 02:24:31;;;;;;;10.40;6.63;;;16.00;99.90;;;;;;4985433;28;20407;-85
2022/06/08 02:27:06;;;;;;;11.18;6.55;;;16.00;99.90;;;;;;4969429;28;20466;-86
2022/06/08 02:29:53;;;;;;;9.20;6.50;;;16.00;99.90;;;;;;5054991;28;20426;-86
2022/06/08 02:35:21;;;;;;;9.80;7.28;;;16.00;99.90;;;;;;4961536;28;20769;-85
2022/06/08 02:37:54;;;;;;;10.52;7.53;;;16.00;99.90;;;;;;5050368;28;20421;-87
2022/06/08 02:40:27;;;;;;;9.18;6.95;;;16.00;99.90;;;;;;4971920;28;20462;-86
2022/06/08 02:43:12;;;;;;;10.32;7.45;;;16.00;99.90;;;;;;4960657;28;20399;-84
2022/06/08 02:45:44;;;;;;;11.65;7.82;;;16.00;99.90;;;;;;4971501;28;20481;-85
2022/06/08 02:48:15;;;;;;;11.40;7.88;;;15.90;99.90;;;;;;4960384;28;20930;-88
2022/06/08 02:50:52;;;;;;;9.70;6.93;;;15.90;99.90;;;;;;4966938;28;20480;-87
2022/06/08 02:53:23;;;;;;;9.93;7.55;;;15.90;99.90;;;;;;4974261;28;20505;-85
2022/06/08 02:56:26;;;;;;;12.18;7.93;;;15.90;99.90;;;;;;4966005;28;20810;-85
2022/06/08 02:59:23;;;;;;;9.65;7.88;;;15.90;99.90;;;;;;4994971;28;20909;-80
2022/06/08 03:02:21;;;;;;;12.07;7.50;;;15.80;99.90;;;;;;4965854;28;20460;-86
2022/06/08 03:05:08;;;;;;;9.80;7.50;;;15.90;99.90;;;;;;4966376;28;20434;-85
2022/06/08 03:07:53;;;;;;;10.23;7.50;;;15.80;99.90;;;;;;4967536;28;20464;-87
2022/06/08 03:10:22;;;;;;;11.38;8.48;;;15.80;99.90;;;;;;4963338;28;21141;-86
2022/06/08 03:13:16;;;;;;;12.88;7.82;;;15.90;99.90;;;;;;4982585;28;20944;-88
2022/06/08 03:15:51;;;;;;;15.10;8.18;;;15.80;99.90;;;;;;4966903;28;20399;-87
2022/06/08 03:18:20;;;;;;;12.88;8.32;;;15.80;99.90;;;;;;4968663;28;20392;-84
2022/06/08 03:20:48;;;;;;;12.23;8.90;;;15.70;99.90;;;;;;4978608;28;20486;-86
2022/06/08 03:23:17;;;;;;;11.43;8.55;;;15.80;99.90;;;;;;4983595;28;20447;-86
2022/06/08 03:25:46;;;;;;;13.02;8.60;;;15.80;99.90;;;;;;4983731;28;20397;-82
2022/06/08 03:28:16;;;;;;;12.52;8.73;;;15.80;99.90;;;;;;4960275;28;20423;-85
2022/06/08 03:30:45;;;;;;;11.35;8.50;;;15.70;99.90;;;;;;4962713;28;20778;-86
2022/06/08 03:33:15;;;;;;;10.30;8.95;;;15.70;99.90;;;;;;4957629;28;20402;-86
2022/06/08 03:35:42;;;;;;;10.75;8.70;;;15.70;99.90;;;;;;4962811;28;20390;-86
2022/06/08 03:38:10;;;;;;;9.98;8.20;;;15.70;99.90;;;;;;4982015;28;20462;-86
2022/06/08 03:40:41;;;;;;;13.80;8.87;;;15.90;99.90;;;;;;4978569;28;20899;-82
2022/06/08 03:43:10;;;;;;;15.18;9.00;;;15.90;99.90;;;;;;4969806;28;20433;-88
2022/06/08 03:45:46;;;;;;;10.40;8.90;;;15.90;99.90;;;;;;4982916;28;20397;-80
2022/06/08 03:48:15;;;;;;;12.65;9.43;;;15.80;99.90;;;;;;4968977;28;20453;-87
2022/06/08 03:50:44;;;;;;;12.00;8.90;;;15.90;99.90;;;;;;4967971;28;20429;-87
2022/06/08 03:53:24;;;;;;;13.68;9.85;;;16.00;99.90;;;;;;4986729;28;20937;-83
2022/06/08 03:55:53;;;;;;;14.68;9.50;;;15.90;99.90;;;;;;4972029;28;20440;-80
2022/06/08 03:58:21;;;;;;;11.20;8.90;;;15.90;99.90;;;;;;5037136;28;20484;-82
2022/06/08 04:00:51;;;;;;;10.80;9.50;;;15.90;99.90;;;;;;4969656;28;20534;-84
2022/06/08 04:03:18;;;;;;;16.55;10.52;;;16.00;99.90;;;;;;4977954;28;20402;-82
2022/06/08 04:05:47;;;;;;;11.40;8.73;;;16.00;99.90;;;;;;4963342;28;20419;-81
2022/06/08 04:08:20;;;;;;;13.20;9.77;;;16.00;99.90;;;;;;4989482;28;20411;-81
2022/06/08 04:10:52;;;;;;;13.38;10.60;;;16.10;99.90;;;;;;4981805;28;20407;-79
2022/06/08 04:13:20;;;;;;;14.50;11.32;;;16.10;99.90;;;;;;4963823;28;20411;-79
2022/06/08 04:15:50;;;;;;;13.60;10.60;;;16.20;99.90;;;;;;4983964;28;20821;-88
2022/06/08 04:18:32;;;;;;;15.90;10.37;;;16.20;99.90;;;;;;4963077;28;20510;-83
2022/06/08 04:21:06;;;;;;;14.87;11.30;;;16.30;99.90;;;;;;4975195;28;20403;-85
2022/06/08 04:23:57;;;;;;;13.43;10.82;;;16.30;99.90;;;;;;4970633;28;20423;-84
2022/06/08 04:26:28;;;;;;;13.93;10.35;;;16.30;99.90;;;;;;4985884;28;20422;-81
2022/06/08 04:29:03;;;;;;;12.40;10.38;;;16.30;99.90;;;;;;4968158;28;20410;-80
2022/06/08 04:31:33;;;;;;;12.68;10.73;;;16.40;99.90;;;;;;4987780;28;20444;-83
2022/06/08 04:34:10;;;;;;;12.68;10.38;;;16.40;99.90;;;;;;4990390;28;20410;-82
2022/06/08 04:36:43;;;;;;;14.20;11.98;;;16.40;99.90;;;;;;4995554;28;20407;-83
2022/06/08 04:39:14;;;;;;;14.82;11.82;;;16.50;99.90;;;;;;4978308;28;20414;-83
2022/06/08 04:41:50;;;;;;;13.93;11.48;;;16.60;99.90;;;;;;4978735;28;20406;-82
2022/06/08 04:44:21;;;;;;;14.20;11.90;;;16.70;99.90;;;;;;4983009;28;20832;-80
2022/06/08 04:46:50;;;;;;;13.57;11.40;;;16.80;99.90;;;;;;4981810;28;20522;-81
2022/06/08 04:49:22;;;;;;;12.80;11.38;;;16.90;99.90;;;;;;4980133;28;20418;-79
2022/06/08 04:51:51;;;;;;;12.60;10.68;;;16.90;99.90;;;;;;4962592;28;20405;-78
2022/06/08 04:54:22;;;;;;;14.47;11.97;;;17.00;99.90;;;;;;4978146;28;20405;-80
2022/06/08 04:56:51;;;;;;;13.43;10.73;;;17.00;99.90;;;;;;4996136;28;20410;-84
2022/06/08 04:59:19;;;;;;;14.45;11.75;;;17.00;99.90;;;;;;4971456;28;20415;-79
2022/06/08 05:01:55;;;;;;;13.77;11.73;;;17.10;99.90;;;;;;4983195;28;20418;-79
2022/06/08 05:04:23;;;;;;;14.10;11.63;;;17.20;99.90;;;;;;4995916;28;20403;-80
2022/06/08 05:06:51;;;;;;;13.50;11.65;;;17.30;99.90;;;;;;5014615;28;20494;-79
2022/06/08 05:09:20;;;;;;;13.15;11.75;;;17.30;99.90;;;;;;4980836;28;20535;-78
2022/06/08 05:11:49;;;;;;;13.52;11.18;;;17.30;99.90;;;;;;4982475;28;20395;-79
2022/06/08 05:14:19;;;;;;;13.83;11.23;;;17.40;99.90;;;;;;4966166;28;20433;-79
2022/06/08 05:16:48;;;;;;;13.45;11.43;;;17.60;99.90;;;;;;4972018;28;20426;-79
2022/06/08 05:19:17;;;;;;;13.95;12.18;;;17.60;99.90;;;;;;4998993;28;20426;-79
2022/06/08 05:21:44;;;;;;;15.57;12.17;;;17.60;99.90;;;;;;4982108;28;20407;-79
2022/06/08 05:24:17;;;;;;;13.65;11.43;;;17.70;99.90;;;;;;4965177;28;20468;-87
2022/06/08 05:26:49;;;;;;;13.88;12.02;;;17.70;99.90;;;;;;4971644;28;20413;-86
2022/06/08 05:29:17;;;;;;;14.02;11.82;;;17.70;99.90;;;;;;4970473;28;20422;-87
2022/06/08 05:31:47;;;;;;;13.77;11.73;;;17.80;99.90;;;;;;4986822;28;20485;-86
2022/06/08 05:34:15;;;;;;;15.60;12.07;;;17.90;99.90;;;;;;4971239;28;20415;-88
2022/06/08 05:36:43;;;;;;;13.40;12.00;;;17.90;99.90;;;;;;4971046;28;20403;-85
2022/06/08 05:39:18;;;;;;;13.75;12.20;;;17.90;99.90;;;;;;4970556;28;20826;-86
2022/06/08 05:41:46;;;;;;;14.85;12.07;;;18.00;99.90;;;;;;4986508;28;20889;-86
2022/06/08 05:44:13;;;;;;;13.68;11.82;;;18.00;99.90;;;;;;4970179;28;20458;-86
2022/06/08 05:46:44;;;;;;;13.95;11.65;;;18.00;99.90;;;;;;4970170;28;20407;-87
2022/06/08 05:49:15;;;;;;;13.43;11.93;;;18.00;99.90;;;;;;4954703;28;20417;-87
2022/06/08 05:51:46;;;;;;;14.70;11.85;;;18.00;99.90;;;;;;4986258;28;20472;-85
2022/06/08 05:54:18;;;;;;;13.27;11.97;;;18.10;99.90;;;;;;4985565;28;20516;-87
2022/06/08 05:56:45;;;;;;;14.00;11.95;;;18.10;99.90;;;;;;4986284;28;20464;-86
2022/06/08 05:59:13;;;;;;;13.97;12.57;;;18.20;99.90;;;;;;4970077;28;20399;-83
2022/06/08 06:01:43;;;;;;;17.95;12.50;;;18.20;99.90;;;;;;4970453;28;20407;-86
2022/06/08 06:04:10;;;;;;;13.90;12.15;;;18.30;99.90;;;;;;4986509;28;20448;-86
2022/06/08 06:06:43;;;;;;;13.38;11.90;;;18.40;99.90;;;;;;4986122;28;20414;-83
2022/06/08 06:09:11;;;;;;;13.75;12.25;;;18.50;99.90;;;;;;4987705;28;20401;-85
2022/06/08 06:11:39;;;;;;;13.10;11.80;;;18.60;99.90;;;;;;4971480;28;20444;-84
2022/06/08 06:14:09;;;;;;;15.57;12.10;;;18.70;99.90;;;;;;4990431;28;20402;-80
2022/06/08 06:16:40;;;;;;;12.82;11.43;;;18.90;99.90;;;;;;4976537;28;20402;-86
2022/06/08 06:19:08;;;;;;;15.85;13.02;;;18.80;99.90;;;;;;4986185;28;20905;-84
2022/06/08 06:22:01;;;;;;;16.38;13.00;;;18.70;99.90;;;;;;4987608;28;20414;-85
2022/06/08 06:24:50;;;;;;;14.70;12.30;;;18.80;99.90;;;;;;4970923;28;20407;-86
2022/06/08 06:27:18;;;;;;;15.10;12.73;;;18.90;99.90;;;;;;4971316;28;20463;-87
2022/06/08 06:30:10;;;;;;;13.77;11.82;;;18.90;99.90;;;;;;4989015;28;20409;-82
2022/06/08 06:32:56;;;;;;;14.23;12.68;;;18.90;99.90;;;;;;4977342;28;20433;-82
2022/06/08 06:35:29;;;;;;;14.45;12.80;;;18.90;99.90;;;;;;4977145;28;20481;-82
2022/06/08 06:38:05;;;;;;;16.42;13.23;;;19.10;99.90;;;;;;4960730;28;20482;-88
2022/06/08 06:40:36;;;;;;;13.80;12.35;;;19.20;99.90;;;;;;4954484;28;20403;-87
2022/06/08 06:43:05;;;;;;;12.60;11.30;;;19.20;99.90;;;;;;4986200;28;20477;-84
2022/06/08 06:45:39;;;;;;;14.20;12.20;;;19.20;99.90;;;;;;4970824;28;20386;-86
2022/06/08 06:48:44;;;;;;;13.45;11.95;;;19.30;99.90;;;;;;4949221;29;20416;-86
2022/06/08 06:51:13;;;;;;;12.90;11.60;;;19.50;99.90;;;;;;4948663;28;20416;-84
2022/06/08 06:53:41;;;;;;;14.90;12.70;;;19.40;99.90;;;;;;4949497;28;20421;-85
2022/06/08 06:56:10;;;;;;;13.60;12.10;;;19.40;99.90;;;;;;4949841;28;20434;-87
2022/06/08 06:58:42;;;;;;;13.70;11.27;;;19.50;99.90;;;;;;4966104;28;20955;-85
2022/06/08 07:01:11;;;;;;;12.93;11.57;;;19.60;99.90;;;;;;4966286;28;20403;-85
2022/06/08 07:03:40;;;;;;;13.35;11.68;;;19.70;99.90;;;;;;4950212;28;20824;-86
2022/06/08 07:06:07;;;;;;;14.27;12.15;;;19.90;99.90;;;;;;4966396;28;20401;-85
2022/06/08 07:08:36;;;;;;;13.10;11.77;;;19.90;99.90;;;;;;4950021;28;20436;-85
2022/06/08 07:13:54;;;;;;;14.50;12.60;;;20.10;99.90;;;;;;4966095;28;20436;-86
2022/06/08 07:16:22;;;;;;;14.23;12.73;;;20.00;99.90;;;;;;4949998;29;20435;-85
2022/06/08 07:18:50;;;;;;;17.90;14.13;;;20.00;99.90;;;;;;4965616;28;20439;-85
2022/06/08 07:21:18;;;;;;;16.42;12.95;;;20.10;99.90;;;;;;4965794;28;20406;-87
2022/06/08 07:23:47;;;;;;;19.30;15.43;;;20.10;99.90;;;;;;4965792;28;20408;-87
2022/06/08 07:26:17;;;;;;;17.08;15.27;;;20.30;99.90;;;;;;4934236;28;20432;-87
2022/06/08 07:28:45;;;;;;;19.90;17.63;;;20.10;99.90;;;;;;4951090;28;20457;-86
2022/06/08 07:31:14;;;;;;;19.08;16.98;;;20.20;99.90;;;;;;4950815;28;20404;-86
2022/06/08 07:33:42;;;;;;;20.08;17.45;;;20.30;99.90;;;;;;4949774;29;20393;-86
2022/06/08 07:36:09;;;;;;;19.33;16.98;;;20.40;99.90;;;;;;4951197;28;20423;-85
2022/06/08 07:38:37;;;;;;;21.65;17.45;;;20.50;99.90;;;;;;4968826;28;20467;-84
2022/06/08 07:41:05;;;;;;;19.17;16.40;;;20.50;99.90;;;;;;4954054;28;20408;-86
2022/06/08 07:43:39;;;;;;;18.85;15.73;;;20.60;99.90;;;;;;4969514;28;20411;-84
2022/06/08 07:46:07;;;;;;;16.88;14.60;;;20.60;99.90;;;;;;4952943;28;20958;-86
2022/06/08 07:51:21;;;;;;;16.83;13.65;;;20.70;99.90;;;;;;4978295;28;20478;-87
2022/06/08 07:53:48;;;;;;;17.97;13.63;;;20.90;99.90;;;;;;4988461;28;20394;-87
2022/06/08 07:56:16;;;;;;;14.18;12.70;;;21.00;99.90;;;;;;4973213;28;20403;-87
2022/06/08 07:58:43;;;;;;;14.75;13.07;;;20.90;99.90;;;;;;4956176;28;20766;-86
2022/06/08 08:01:11;;;;;;;14.57;12.95;;;20.90;99.90;;;;;;4973204;28;20398;-86
2022/06/08 08:03:39;;;;;;;15.38;12.57;;;20.90;99.90;;;;;;4987936;28;20402;-86
2022/06/08 08:06:09;;;;;;;13.80;12.30;;;20.90;99.90;;;;;;4988189;28;20913;-87
2022/06/08 08:08:38;;;;;;;15.63;13.00;;;20.90;99.90;;;;;;4973420;28;20456;-85
2022/06/08 08:11:07;;;;;;;17.38;12.30;;;20.90;99.90;;;;;;4974141;28;20448;-87
2022/06/08 08:13:36;;;;;;;15.32;12.35;;;20.90;99.90;;;;;;4974137;28;20386;-86
2022/06/08 08:16:05;;;;;;;14.23;12.50;;;20.90;99.90;;;;;;4988411;28;20434;-86
2022/06/08 08:18:33;;;;;;;12.68;11.40;;;21.00;99.90;;;;;;4987755;28;20403;-86
2022/06/08 08:21:01;;;;;;;13.57;12.18;;;21.00;99.90;;;;;;4971600;28;20956;-87
2022/06/08 08:23:28;;;;;;;16.00;12.20;;;20.90;99.90;;;;;;4972637;28;20490;-86
2022/06/08 08:25:57;;;;;;;15.60;13.07;;;21.00;99.90;;;;;;4972844;28;20398;-86
2022/06/08 08:28:24;;;;;;;13.70;12.20;;;20.90;99.90;;;;;;4971303;28;20471;-87
2022/06/08 08:30:52;;;;;;;13.70;12.15;;;20.90;99.90;;;;;;4972438;28;20417;-86
2022/06/08 08:33:26;;;;;;;13.55;11.70;;;20.90;99.90;;;;;;4972494;28;20416;-87
2022/06/08 08:35:54;;;;;;;13.93;12.25;;;20.90;99.90;;;;;;4972390;28;20468;-86
2022/06/08 08:38:22;;;;;;;12.88;11.57;;;20.90;99.90;;;;;;4971010;28;20399;-86
2022/06/08 08:40:55;;;;;;;13.93;12.27;;;21.00;99.90;;;;;;4971367;28;20460;-86
2022/06/08 08:43:27;;;;;;;14.68;12.40;;;21.00;99.90;;;;;;4986966;28;20410;-86
2022/06/08 08:46:07;;;;;;;13.97;12.47;;;21.10;99.90;;;;;;4987289;28;20395;-87
2022/06/08 08:49:03;;;;;;;12.83;11.17;;;21.20;99.90;;;;;;4971274;28;20845;-86
2022/06/08 08:51:57;;;;;;;13.05;11.75;;;21.30;99.90;;;;;;4968557;28;20411;-86
2022/06/08 08:54:36;;;;;;;15.60;12.30;;;21.30;99.90;;;;;;4987678;28;20402;-88
2022/06/08 08:57:15;;;;;;;12.77;11.48;;;21.30;99.90;;;;;;4972391;28;20470;-84
2022/06/08 08:59:46;;;;;;;12.77;11.45;;;21.30;99.90;;;;;;4972279;28;20391;-85
2022/06/08 09:03:14;;;;;;;13.10;11.80;;;21.20;99.90;;;;;;4987198;28;20426;-87
2022/06/08 09:05:15;;;;;;;13.85;11.80;;;21.20;99.90;;;;;;4972091;28;20932;-86
2022/06/08 09:07:43;;;;;;;12.32;10.70;;;21.20;99.90;;;;;;4972057;28;20407;-87
2022/06/08 09:10:23;;;;;;;11.88;10.70;;;21.20;99.90;;;;;;4970987;28;20460;-84
2022/06/08 09:12:52;;;;;;;12.55;11.32;;;21.20;99.90;;;;;;4987021;28;20778;-84
2022/06/08 09:15:51;;;;;;;14.00;11.47;;;21.20;99.90;;;;;;4971927;28;20425;-86
2022/06/08 09:18:41;;;;;;;12.95;10.70;;;21.30;99.90;;;;;;4971777;28;20808;-87
2022/06/08 09:21:33;;;;;;;12.70;11.27;;;21.30;99.90;;;;;;4970623;28;20532;-84
2022/06/08 09:24:23;;;;;;;13.40;11.20;;;21.30;99.90;;;;;;4986774;28;20746;-88
2022/06/08 09:26:55;;;;;;;12.82;11.20;;;21.40;99.90;;;;;;4986789;28;20401;-87
2022/06/08 09:29:29;;;;;;;12.15;10.88;;;21.50;99.90;;;;;;4970642;28;20419;-86
2022/06/08 09:31:58;;;;;;;13.20;11.07;;;21.50;99.90;;;;;;4981712;28;20416;-85
2022/06/08 09:34:34;;;;;;;12.63;11.43;;;21.60;99.90;;;;;;4975697;28;20404;-84
2022/06/08 09:37:26;;;;;;;12.93;11.02;;;21.70;99.90;;;;;;4951608;29;20491;-86
2022/06/08 09:39:57;;;;;;;11.05;9.30;;;21.70;99.90;;;;;;4967511;28;20444;-86
2022/06/08 09:43:12;;;;;;;10.30;9.20;;;21.80;99.90;;;;;;4967142;28;20431;-86
2022/06/08 09:46:09;;;;;;;9.15;8.25;;;21.90;99.90;;;;;;4930056;28;20402;-85
2022/06/08 09:51:56;;;;;;;12.43;8.10;;;22.00;99.90;;;;;;4993301;28;20412;-84
2022/06/08 09:55:04;;;;;;;9.73;8.00;;;22.00;99.90;;;;;;4970861;28;20398;-85
2022/06/08 09:57:52;;;;;;;10.00;8.20;;;22.10;99.90;;;;;;4954593;28;20551;-85
2022/06/08 10:00:29;;;;;;;11.20;8.43;;;22.20;99.90;;;;;;4969423;28;20849;-87
2022/06/08 10:03:06;;;;;;;12.75;9.10;;;22.40;99.90;;;;;;4985093;28;20421;-87
2022/06/08 10:05:42;;;;;;;10.65;9.27;;;22.50;99.90;;;;;;4967728;28;20399;-85
2022/06/08 10:08:21;;;;;;;12.18;9.52;;;22.50;99.90;;;;;;4970466;28;20908;-86
2022/06/08 10:10:55;;;;;;;13.95;9.35;;;22.50;99.90;;;;;;4986224;28;20482;-85
2022/06/08 10:13:41;;;;;;;10.20;8.93;;;22.60;99.90;;;;;;4970920;28;21461;-86
2022/06/08 10:16:22;;;;;;;10.30;9.30;;;22.60;99.90;;;;;;4964299;28;20438;-87
2022/06/08 10:18:57;;;;;;;10.52;8.75;;;22.50;99.90;;;;;;4964832;28;20411;-87
2022/06/08 10:21:31;;;;;;;10.80;8.65;;;22.60;99.90;;;;;;4966673;28;20403;-87
2022/06/08 10:24:21;;;;;;;9.10;8.15;;;22.60;99.90;;;;;;4971515;28;20842;-87
2022/06/08 10:26:53;;;;;;;9.63;8.60;;;22.60;99.90;;;;;;4972589;28;20413;-87
2022/06/08 10:29:27;;;;;;;10.10;8.80;;;22.60;99.90;;;;;;4976265;28;20492;-87
2022/06/08 10:32:02;;;;;;;9.85;8.27;;;22.70;99.90;;;;;;4982815;28;20399;-86
2022/06/08 10:34:32;;;;;;;10.07;8.17;;;22.90;99.90;;;;;;4950484;28;20401;-86
2022/06/08 10:37:15;;;;;;;9.63;8.70;;;22.90;99.90;;;;;;4935159;29;20408;-87
2022/06/08 10:39:44;;;;;;;9.20;8.20;;;23.00;99.90;;;;;;4952794;28;20407;-87
2022/06/08 10:45:00;;;;;;;9.63;8.20;;;23.20;99.90;;;;;;4970951;28;20777;-86
2022/06/08 10:47:33;;;;;;;9.35;8.45;;;23.10;99.90;;;;;;4986073;28;20463;-86
2022/06/08 10:50:01;;;;;;;8.90;8.00;;;23.20;99.90;;;;;;4985968;28;20858;-87
2022/06/08 10:52:49;;;;;;;8.57;7.70;;;23.30;99.90;;;;;;4985552;28;20398;-88
2022/06/08 10:55:18;;;;;;;8.90;8.00;;;23.30;99.90;;;;;;4953877;28;20399;-86
2022/06/08 10:57:52;;;;;;;9.18;8.27;;;23.50;99.90;;;;;;4971629;28;20422;-87
2022/06/08 11:00:19;;;;;;;8.82;7.93;;;23.50;99.90;;;;;;4983061;28;20462;-87
2022/06/08 11:03:00;;;;;;;8.68;7.10;;;23.60;99.90;;;;;;4950086;28;20762;-86
2022/06/08 11:05:31;;;;;;;8.32;7.38;;;23.70;99.90;;;;;;4969905;28;20399;-87
2022/06/08 11:07:59;;;;;;;9.10;7.65;;;23.70;99.90;;;;;;5029816;28;20413;-87
2022/06/08 11:10:45;;;;;;;8.60;7.70;;;23.80;99.90;;;;;;4970498;28;20991;-87
2022/06/08 11:13:22;;;;;;;8.77;7.47;;;23.90;99.90;;;;;;4972617;28;20425;-84
2022/06/08 11:15:53;;;;;;;7.85;7.00;;;23.90;99.90;;;;;;4972548;28;20440;-87
2022/06/08 11:18:30;;;;;;;8.43;7.45;;;23.90;99.90;;;;;;4973931;28;20395;-86
2022/06/08 11:21:13;;;;;;;8.10;7.20;;;24.00;99.90;;;;;;4973987;28;20865;-86
2022/06/08 11:24:14;;;;;;;8.20;7.05;;;24.10;99.90;;;;;;4972480;28;20395;-86
2022/06/08 11:26:49;;;;;;;9.90;7.60;;;24.10;99.90;;;;;;4956283;28;20406;-86
2022/06/08 11:29:17;;;;;;;8.63;7.75;;;24.00;99.90;;;;;;5057035;28;20406;-84
2022/06/08 11:31:45;;;;;;;8.30;7.20;;;24.00;99.90;;;;;;4973595;28;20430;-87
2022/06/08 11:34:19;;;;;;;8.23;7.40;;;23.90;99.90;;;;;;4988843;28;20414;-87
2022/06/08 11:37:12;;;;;;;7.68;6.97;;;23.80;99.90;;;;;;4973668;28;20405;-88
2022/06/08 11:39:44;;;;;;;8.95;7.88;;;23.60;99.90;;;;;;4975208;28;20419;-86
2022/06/08 11:42:14;;;;;;;8.30;7.40;;;23.50;99.90;;;;;;4968882;28;20427;-85
2022/06/08 11:44:54;;;;;;;8.53;6.93;;;23.30;99.90;;;;;;4953227;28;20871;-86
2022/06/08 11:47:36;;;;;;;9.27;7.28;;;23.20;99.90;;;;;;4968736;28;20400;-87
2022/06/08 11:50:18;;;;;;;8.75;6.90;;;23.10;99.90;;;;;;4953041;28;20396;-88
2022/06/08 11:53:06;;;;;;;8.98;7.43;;;23.00;99.90;;;;;;4968182;28;20491;-87
2022/06/08 11:55:42;;;;;;;7.10;6.40;;;22.90;99.90;;;;;;4968831;28;20392;-86
2022/06/08 11:58:17;;;;;;;9.10;6.72;;;22.80;99.90;;;;;;4952923;29;20435;-87
2022/06/08 12:00:53;;;;;;;7.25;6.60;;;22.80;99.90;;;;;;4962917;28;20410;-88
2022/06/08 12:03:27;;;;;;;7.78;6.90;;;22.70;99.90;;;;;;5060524;28;20895;-87
2022/06/08 12:06:14;;;;;;;7.60;6.80;;;22.70;99.90;;;;;;4976843;28;20409;-87
2022/06/08 12:09:06;;;;;;;8.00;6.90;;;22.70;99.90;;;;;;4974958;28;20405;-87
2022/06/08 12:11:40;;;;;;;8.25;6.57;;;22.70;99.90;;;;;;4994192;28;20393;-87
2022/06/08 12:14:28;;;;;;;7.80;6.45;;;22.60;99.90;;;;;;4975702;28;20796;-86
2022/06/08 12:17:22;;;;;;;7.43;6.72;;;22.50;99.90;;;;;;5059924;28;20549;-87
2022/06/08 12:19:56;;;;;;;13.07;6.30;;;22.30;99.90;;;;;;4973021;28;20399;-86
2022/06/08 12:22:35;;;;;;;8.50;5.38;;;21.70;99.90;;;;;;4970448;28;20953;-85
2022/06/08 12:25:21;;;;;;;9.48;5.20;;;21.20;99.90;;;;;;4987407;28;20418;-86
2022/06/08 12:27:54;;;;;;;7.57;4.93;;;20.80;99.90;;;;;;4971785;28;20541;-85
2022/06/08 12:30:47;;;;;;;8.15;5.47;;;20.50;99.90;;;;;;4974646;28;20395;-79
2022/06/08 12:33:17;;;;;;;11.07;5.93;;;20.30;99.90;;;;;;4978345;28;20672;-87
2022/06/08 12:36:08;;;;;;;11.07;6.05;;;20.00;99.90;;;;;;4989353;28;20767;-87
2022/06/08 12:38:38;;;;;;;10.37;5.20;;;19.80;99.90;;;;;;4990966;28;20404;-86
2022/06/08 12:41:12;;;;;;;6.60;5.00;;;19.80;99.90;;;;;;4990535;28;20475;-84
2022/06/08 12:43:50;;;;;;;8.00;5.50;;;19.40;99.90;;;;;;4992080;28;20480;-80
2022/06/08 12:46:26;;;;;;;8.20;5.65;;;19.80;99.90;;;;;;4992282;28;20484;-87
2022/06/08 12:49:00;;;;;;;8.65;4.45;;;20.10;99.90;;;;;;5073688;28;20495;-87
2022/06/08 12:52:00;;;;;;;9.33;5.70;;;20.30;99.90;;;;;;4974295;28;20459;-87
2022/06/08 12:54:34;;;;;;;8.43;5.70;;;20.40;99.90;;;;;;4975595;28;20809;-86
2022/06/08 12:57:14;;;;;;;9.45;5.85;;;20.20;99.90;;;;;;4993825;28;20404;-86
2022/06/08 12:59:42;;;;;;;6.57;4.65;;;20.30;99.90;;;;;;4991510;28;20403;-86
2022/06/08 13:02:18;;;;;;;8.77;5.20;;;20.40;99.90;;;;;;5080565;28;20810;-81
2022/06/08 13:04:48;;;;;;;10.00;5.50;;;20.40;99.90;;;;;;5042591;28;20395;-86
2022/06/08 13:07:29;;;;;;;7.33;4.80;;;20.30;99.90;;;;;;4972476;28;20403;-87
2022/06/08 13:09:58;;;;;;;5.88;5.28;;;20.40;99.90;;;;;;5054508;28;20416;-85
2022/06/08 13:12:31;;;;;;;10.40;5.97;;;20.40;99.90;;;;;;4991764;28;20390;-86
2022/06/08 13:15:01;;;;;;;8.10;6.30;;;20.40;99.90;;;;;;4991849;28;20484;-87
2022/06/08 13:17:28;;;;;;;8.02;6.15;;;20.40;99.90;;;;;;5058378;28;20438;-88
2022/06/08 13:19:59;;;;;;;12.05;6.25;;;20.40;99.90;;;;;;4990326;28;20433;-86
2022/06/08 13:22:27;;;;;;;13.30;7.03;;;19.90;99.90;;;;;;4991164;28;20393;-86
2022/06/08 13:24:55;;;;;;;19.77;9.10;;;19.70;99.90;;;;;;4991023;28;20478;-85
2022/06/08 13:27:23;;;;;;;12.82;7.72;;;20.00;99.90;;;;;;5059507;28;20397;-79
2022/06/08 13:29:50;;;;;;;8.80;7.13;;;20.10;99.90;;;;;;5063454;28;20836;-86